Terminal Aerodrome Forecast
Issued by NWS Grand Forks, ND

Current Version | Previous Version | Text Only | Print | Product List | Glossary On
Versions: 1 2 3 4 5 6 7 8 9 10 11 12 13 14 15 16
000
FTUS43 KFGF 280520
TAFFAR
TAF
KFAR 280520Z 2806/2906 06008KT P6SM BKN110
     FM281400 16014G21KT P6SM BKN120
     FM282100 19017G25KT P6SM VCTS BKN060CB
     FM290200 23014KT P6SM VCSH OVC040=

USA.gov is the U.S. government's official web portal to all federal, state and local government web resources and services.